Big Rapids, MI

11:21 AM EDT on October 16, 2019 (GMT -0400)
Roben-Hood

Weather History for KRQB - August, 2019

Change the Weather History Date:

Friday, August 23, 2019

  Actual Average Record
Temperature  
Mean Temperature 58 °F -  
Max Temperature 71 °F 76 °F 87 °F (1998)
Min Temperature 46 °F 53 °F 44 °F (2006)
Degree Days  
Heating Degree Days 6    
Growing Degree Days 8 (Base 50)    
Moisture  
Dew Point 49 °F    
Average Humidity 72    
Maximum Humidity 96    
Minimum Humidity 39    
Precipitation  
Precipitation 0.00 in - - ()
Sea Level Pressure  
Sea Level Pressure 30.21 in    
Wind  
Wind Speed 1 mph (NNE)    
Max Wind Speed 10 mph    
Max Gust Speed 18 mph    
Visibility 10 miles    
Events      
Averages and records for this station are not official NWS values.
T = Trace of Precipitation, MM = Missing Value Source: NWS Daily Summary

Daily Weather History Graph

Daily Weather History Graph

Search for Another Location

Airport or City:

Astronomy

Aug. 23, 2019 Rise Set
Actual Time 6:55 AM EDT 8:33 PM EDT
Civil Twilight 6:24 AM EDT 9:03 PM EDT
Nautical Twilight 5:47 AM EDT 9:40 PM EDT
Astronomical Twilight 5:08 AM EDT 10:19 PM EDT
Moon 12:11 AM EDT (8/23) 2:46 PM EDT (8/23)
Length of Visible Light 14h 38m
Length of Day
13h 38m
Waning Gibbous, 50% of the Moon is Illuminated
Aug 23
Waning Gibbous
Aug 30
New
Sep 5
First Quarter
Sep 14
Full
Sep 21
Last Quarter

Hourly Weather History & Observations

Time (EDT) Temp. Windchill Dew Point Humidity Pressure Visibility Wind Dir Wind Speed Gust Speed Precip Events Conditions
12:00 AM 55.9 °F - 45.9 °F 69% 30.12 in 10.0 mi Calm Calm - N/A   Clear
12:17 AM 55.0 °F - 46.0 °F 72% 30.12 in 10.0 mi Calm Calm - N/A   Clear
12:35 AM 54.7 °F - 46.6 °F 74% 30.13 in 10.0 mi Calm Calm - N/A   Clear
12:36 AM 54.7 °F - 46.4 °F 74% 30.13 in 10.0 mi Calm Calm - N/A   Clear
12:55 AM 53.6 °F - 46.6 °F 77% 30.13 in 10.0 mi Calm Calm - N/A   Clear
1:15 AM 53.6 °F - 46.4 °F 77% 30.13 in 10.0 mi Calm Calm - N/A   Clear
1:19 AM 53.2 °F - 46.6 °F 78% 30.13 in 10.0 mi Calm Calm - N/A   Clear
1:38 AM 53.1 °F - 46.6 °F 79% 30.14 in 10.0 mi Calm Calm - N/A   Clear
1:55 AM 52.2 °F - 47.1 °F 83% 30.14 in 10.0 mi Calm Calm - N/A   Clear
2:15 AM 49.8 °F - 46.2 °F 87% 30.14 in 10.0 mi Calm Calm - N/A   Clear
2:35 AM 51.8 °F - 48.0 °F 87% 30.14 in 10.0 mi Calm Calm - N/A   Clear
2:36 AM 51.8 °F - 47.8 °F 86% 30.14 in 10.0 mi Calm Calm - N/A   Clear
2:59 AM 51.1 °F - 47.5 °F 87% 30.15 in 10.0 mi Calm Calm - N/A   Clear
3:17 AM 50.5 °F - 46.6 °F 86% 30.15 in 10.0 mi Calm Calm - N/A   Clear
3:35 AM 50.9 °F - 47.3 °F 87% 30.15 in 10.0 mi Calm Calm - N/A   Clear
3:55 AM 50.0 °F - 47.5 °F 91% 30.16 in 10.0 mi Calm Calm - N/A   Clear
3:56 AM 50.0 °F - 47.5 °F 91% 30.16 in 10.0 mi Calm Calm - N/A   Clear
4:15 AM 50.0 °F - 47.3 °F 90% 30.16 in 10.0 mi NW 3.5 mph - N/A   Clear
4:38 AM 49.6 °F - 46.2 °F 88% 30.17 in 10.0 mi Calm Calm - N/A   Clear
4:56 AM 46.8 °F - 45.0 °F 93% 30.17 in 10.0 mi Calm Calm - N/A   Clear
5:15 AM 48.2 °F - 46.9 °F 95% 30.18 in 10.0 mi Calm Calm - N/A   Clear
5:16 AM 48.4 °F - 47.1 °F 95% 30.18 in 10.0 mi Calm Calm - N/A   Clear
5:35 AM 47.8 °F - 46.2 °F 94% 30.18 in 10.0 mi Calm Calm - N/A   Clear
5:36 AM 47.7 °F - 46.0 °F 94% 30.18 in 10.0 mi Calm Calm - N/A   Clear
5:57 AM 46.8 °F - 45.7 °F 96% 30.19 in 10.0 mi Calm Calm - N/A   Clear
6:16 AM 46.6 °F - 45.1 °F 95% 30.19 in 10.0 mi Calm Calm - N/A   Clear
6:35 AM 46.4 °F 42.9 °F 45.1 °F 95% 30.19 in 10.0 mi West 6.9 mph - N/A   Clear
6:36 AM 46.4 °F 43.5 °F 45.3 °F 96% 30.19 in 10.0 mi West 5.8 mph - N/A   Clear
6:55 AM 47.5 °F - 46.4 °F 96% 30.19 in 10.0 mi Calm Calm - N/A   Clear
7:00 AM 47.5 °F - 46.4 °F 96% 30.19 in 10.0 mi Calm Calm - N/A   Clear
7:17 AM 46.4 °F - 45.0 °F 95% 30.19 in 10.0 mi Calm Calm - N/A   Clear
7:35 AM 47.3 °F - 45.9 °F 95% 30.19 in 10.0 mi Calm Calm - N/A   Clear
7:36 AM 47.3 °F - 45.9 °F 95% 30.19 in 10.0 mi Calm Calm - N/A   Clear
7:55 AM 48.4 °F - 46.9 °F 95% 30.20 in 10.0 mi Calm Calm - N/A   Clear
7:56 AM 48.4 °F - 46.9 °F 95% 30.20 in 10.0 mi Calm Calm - N/A   Clear
8:19 AM 51.1 °F - 49.5 °F 94% 30.20 in 10.0 mi NNE 3.5 mph - N/A   Clear
8:37 AM 52.9 °F - 50.5 °F 92% 30.21 in 10.0 mi Calm Calm - N/A   Clear
8:55 AM 54.7 °F - 51.1 °F 88% 30.21 in 10.0 mi Calm Calm - N/A   Clear
9:15 AM 56.7 °F - 52.2 °F 85% 30.22 in 10.0 mi Calm Calm - N/A   Clear
9:16 AM 57.0 °F - 52.3 °F 84% 30.23 in 10.0 mi Calm Calm - N/A   Clear
9:35 AM 59.0 °F - 51.6 °F 76% 30.22 in 10.0 mi Calm Calm - N/A   Clear
9:58 AM 59.9 °F - 50.4 °F 71% 30.23 in 10.0 mi Calm Calm - N/A   Clear
10:16 AM 61.2 °F - 50.9 °F 69% 30.23 in 10.0 mi Calm Calm - N/A   Clear
10:35 AM 62.8 °F - 50.5 °F 64% 30.23 in 10.0 mi NNW 3.5 mph - N/A   Clear
10:36 AM 63.0 °F - 50.9 °F 65% 30.23 in 10.0 mi NNW 4.6 mph - N/A   Clear
10:55 AM 63.5 °F - 50.5 °F 63% 30.24 in 10.0 mi Calm Calm - N/A   Scattered Clouds
11:19 AM 63.3 °F - 50.5 °F 63% 30.24 in 10.0 mi NNW 4.6 mph - N/A   Mostly Cloudy
11:36 AM 64.2 °F - 49.8 °F 59% 30.24 in 10.0 mi NNE 5.8 mph - N/A   Scattered Clouds
11:55 AM 64.2 °F - 48.7 °F 57% 30.24 in 10.0 mi Calm Calm - N/A   Scattered Clouds
11:56 AM 64.2 °F - 48.7 °F 57% 30.24 in 10.0 mi NNW 3.5 mph - N/A   Scattered Clouds
12:15 PM 64.4 °F - 50.2 °F 60% 30.24 in 10.0 mi North 5.8 mph - N/A   Mostly Cloudy
12:20 PM 65.1 °F - 49.6 °F 57% 30.24 in 10.0 mi NNE 6.9 mph - N/A   Mostly Cloudy
12:38 PM 64.9 °F - 49.3 °F 57% 30.24 in 10.0 mi North 4.6 mph - N/A   Scattered Clouds
12:56 PM 66.0 °F - 48.9 °F 54% 30.24 in 10.0 mi NNE 5.8 mph 18.4 mph N/A   Mostly Cloudy
1:15 PM 67.6 °F - 47.8 °F 49% 30.24 in 10.0 mi ESE 6.9 mph - N/A   Mostly Cloudy
1:16 PM 67.8 °F - 47.7 °F 48% 30.24 in 10.0 mi East 10.4 mph - N/A   Mostly Cloudy
1:35 PM 66.2 °F - 47.5 °F 51% 30.24 in 10.0 mi NNW 4.6 mph - N/A   Mostly Cloudy
1:36 PM 66.2 °F - 47.3 °F 51% 30.24 in 10.0 mi NW 3.5 mph - N/A   Mostly Cloudy
1:59 PM 68.7 °F - 46.6 °F 45% 30.24 in 10.0 mi Calm Calm - N/A   Scattered Clouds
2:17 PM 69.4 °F - 46.6 °F 44% 30.23 in 10.0 mi ESE 9.2 mph 18.4 mph N/A   Scattered Clouds
2:35 PM 69.3 °F - 47.3 °F 45% 30.23 in 10.0 mi Calm Calm - N/A   Scattered Clouds
2:55 PM 70.9 °F - 46.9 °F 42% 30.23 in 10.0 mi East 4.6 mph - N/A   Scattered Clouds
3:15 PM 70.5 °F - 46.9 °F 43% 30.22 in 10.0 mi ESE 4.6 mph - N/A   Mostly Cloudy
3:38 PM 71.1 °F - 47.8 °F 44% 30.22 in 10.0 mi North 3.5 mph - N/A   Scattered Clouds
3:56 PM 70.7 °F - 47.1 °F 43% 30.21 in 10.0 mi ENE 4.6 mph - N/A   Mostly Cloudy
4:15 PM 70.0 °F - 46.9 °F 44% 30.21 in 10.0 mi ENE 6.9 mph - N/A   Mostly Cloudy
4:35 PM 71.1 °F - 44.8 °F 39% 30.21 in 10.0 mi ENE 3.5 mph - N/A   Scattered Clouds
4:36 PM 71.1 °F - 45.1 °F 39% 30.21 in 10.0 mi East 4.6 mph - N/A   Mostly Cloudy
4:59 PM 69.6 °F - 47.7 °F 45% 30.21 in 10.0 mi East 6.9 mph - N/A   Mostly Cloudy
5:17 PM 71.1 °F - 46.4 °F 41% 30.21 in 10.0 mi NE 3.5 mph - N/A   Mostly Cloudy
5:35 PM 69.8 °F - 47.8 °F 46% 30.21 in 10.0 mi East 8.1 mph - N/A   Overcast
5:55 PM 70.7 °F - 46.4 °F 42% 30.21 in 10.0 mi NNE 3.5 mph - N/A   Scattered Clouds
5:56 PM 70.7 °F - 46.4 °F 42% 30.21 in 10.0 mi NE 3.5 mph - N/A   Scattered Clouds
6:15 PM 71.1 °F - 45.9 °F 40% 30.21 in 10.0 mi ESE 5.8 mph - N/A   Mostly Cloudy
6:38 PM 68.9 °F - 48.4 °F 48% 30.22 in 10.0 mi ENE 4.6 mph - N/A   Mostly Cloudy
6:56 PM 68.4 °F - 49.8 °F 51% 30.22 in 10.0 mi NE 3.5 mph - N/A   Mostly Cloudy
7:15 PM 67.3 °F - 51.4 °F 57% 30.22 in 10.0 mi North 3.5 mph - N/A   Scattered Clouds
7:16 PM 67.3 °F - 51.3 °F 56% 30.22 in 10.0 mi NW 4.6 mph - N/A   Scattered Clouds
7:35 PM 67.5 °F - 52.0 °F 58% 30.23 in 10.0 mi Calm Calm - N/A   Scattered Clouds
7:59 PM 64.9 °F - 55.6 °F 72% 30.23 in 10.0 mi Calm Calm - N/A   Clear
8:17 PM 64.0 °F - 55.4 °F 73% 30.22 in 10.0 mi North 3.5 mph - N/A   Clear
8:35 PM 62.1 °F - 53.8 °F 74% 30.22 in 10.0 mi Calm Calm - N/A   Clear
8:36 PM 62.1 °F - 53.8 °F 74% 30.22 in 10.0 mi Calm Calm - N/A   Clear
8:55 PM 61.0 °F - 53.6 °F 77% 30.22 in 10.0 mi Calm Calm - N/A   Clear
9:15 PM 59.7 °F - 53.4 °F 80% 30.23 in 10.0 mi Calm Calm - N/A   Clear
9:20 PM 58.8 °F - 52.9 °F 81% 30.23 in 10.0 mi Calm Calm - N/A   Clear
9:38 PM 58.6 °F - 53.1 °F 82% 30.24 in 10.0 mi Calm Calm - N/A   Clear
9:56 PM 57.7 °F - 52.7 °F 83% 30.24 in 10.0 mi Calm Calm - N/A   Clear
10:15 PM 56.3 °F - 52.2 °F 86% 30.25 in 10.0 mi Calm Calm - N/A   Clear
10:16 PM 56.3 °F - 52.3 °F 87% 30.25 in 10.0 mi Calm Calm - N/A   Clear
10:35 PM 54.9 °F - 51.1 °F 87% 30.26 in 10.0 mi Calm Calm - N/A   Clear
10:59 PM 55.9 °F - 52.0 °F 87% 30.27 in 10.0 mi Calm Calm - N/A   Clear
11:16 PM 55.4 °F - 52.0 °F 88% 30.27 in 10.0 mi Calm Calm - N/A   Clear
11:35 PM 55.2 °F - 51.1 °F 86% 30.27 in 10.0 mi Calm Calm - N/A   Clear
11:58 PM 54.7 °F - 50.0 °F 84% 30.27 in 10.0 mi Calm Calm - N/A   Clear